Time;durP1;ratioP1;P1;durP2;ratioP2;P2;SDS_P1;SDS_P2;PMS_P1;PMS_P2;Temp;Humidity;BMP_temperature;BMP_pressure;BME280_temperature;BME280_humidity;BME280_pressure;Samples;Min_cycle;Max_cycle;Signal;HPM_P1;HPM_P2
2022/04/22 00:00:08;;;;;;;3.67;3.30;;;;;;;13.73;48.75;100035.88;4928930;29;20391;-84
2022/04/22 00:02:34;;;;;;;4.40;2.85;;;;;;;13.79;48.62;100036.19;4936835;29;20479;-84
2022/04/22 00:05:00;;;;;;;4.70;2.92;;;;;;;13.87;48.85;100040.78;4938200;29;20471;-84
2022/04/22 00:07:28;;;;;;;5.63;3.47;;;;;;;13.70;49.35;100029.06;4936267;29;20075;-83
2022/04/22 00:09:53;;;;;;;6.90;3.97;;;;;;;13.70;49.18;100029.06;4936624;29;20052;-84
2022/04/22 00:12:19;;;;;;;8.25;4.22;;;;;;;13.67;49.44;100034.63;4937337;29;20031;-83
2022/04/22 00:14:44;;;;;;;7.03;4.60;;;;;;;13.45;50.10;100031.19;4937875;29;20032;-82
2022/04/22 00:17:10;;;;;;;7.78;3.92;;;;;;;13.54;49.77;100026.09;4937792;29;20023;-83
2022/04/22 00:19:35;;;;;;;7.68;4.53;;;;;;;13.23;50.71;100026.03;4937455;29;20222;-84
2022/04/22 00:22:00;;;;;;;7.10;4.30;;;;;;;13.55;50.00;100018.03;4936467;29;20184;-84
2022/04/22 00:24:26;;;;;;;10.75;5.20;;;;;;;13.48;49.73;100007.16;4937916;29;20050;-84
2022/04/22 00:26:51;;;;;;;6.80;4.88;;;;;;;13.38;50.18;100016.84;4937031;29;20114;-84
2022/04/22 00:29:16;;;;;;;6.30;4.72;;;;;;;13.40;50.24;100011.44;4937597;29;20028;-84
2022/04/22 00:31:42;;;;;;;6.25;4.55;;;;;;;13.22;50.40;100013.84;4937612;29;20024;-84
2022/04/22 00:34:07;;;;;;;10.32;4.78;;;;;;;13.18;50.52;100007.16;4936870;29;20115;-84
2022/04/22 00:36:32;;;;;;;8.27;4.22;;;;;;;13.05;50.67;100007.34;4937667;29;20027;-84
2022/04/22 00:38:58;;;;;;;6.07;4.15;;;;;;;13.09;50.70;99993.78;4937216;29;20039;-83
2022/04/22 00:41:23;;;;;;;7.00;4.78;;;;;;;12.98;50.65;100003.56;4936550;29;20067;-84
2022/04/22 00:43:50;;;;;;;8.52;4.63;;;;;;;13.18;50.57;100007.97;4936863;29;20059;-84
2022/04/22 00:46:15;;;;;;;8.82;4.60;;;;;;;13.22;50.03;100004.13;4931451;29;20479;-84
2022/04/22 00:48:41;;;;;;;6.38;4.47;;;;;;;13.11;50.41;100006.81;4918364;29;20024;-84
2022/04/22 00:51:09;;;;;;;7.97;4.40;;;;;;;13.02;50.51;100002.34;4936454;29;20032;-84
2022/04/22 00:53:35;;;;;;;7.47;4.30;;;;;;;12.89;50.73;100003.41;4925106;29;20032;-83
2022/04/22 00:56:06;;;;;;;4.82;4.13;;;;;;;13.00;50.59;99999.84;4918420;29;20024;-83
2022/04/22 00:58:35;;;;;;;7.60;4.20;;;;;;;12.89;50.62;100007.81;4918279;29;20461;-82
2022/04/22 01:01:00;;;;;;;6.68;4.53;;;;;;;12.99;50.48;99998.16;4934158;29;20052;-84
2022/04/22 01:03:26;;;;;;;7.00;4.90;;;;;;;13.03;50.38;99994.31;4937116;29;20034;-84
2022/04/22 01:11:20;;;;;;;8.35;5.10;;;;;;;12.64;51.31;99986.16;4936978;29;20126;-84
2022/04/22 01:13:47;;;;;;;6.25;4.05;;;;;;;12.86;50.98;99987.00;4936169;29;20035;-84
2022/04/22 01:16:12;;;;;;;5.68;4.10;;;;;;;12.65;51.24;99979.91;4935800;29;20059;-84
2022/04/22 01:18:37;;;;;;;5.63;4.50;;;;;;;12.66;51.09;99978.13;4935542;29;20407;-84
2022/04/22 01:21:04;;;;;;;7.18;4.22;;;;;;;12.59;51.21;99977.78;4934972;29;20036;-84
2022/04/22 01:23:29;;;;;;;6.18;4.20;;;;;;;12.66;51.26;99973.69;4936672;29;20395;-84
2022/04/22 01:25:56;;;;;;;5.55;3.55;;;;;;;12.70;50.76;99977.75;4936223;29;20031;-84
2022/04/22 01:28:23;;;;;;;7.82;4.28;;;;;;;12.42;51.67;99983.63;4924285;29;20347;-83
2022/04/22 01:30:53;;;;;;;6.15;3.85;;;;;;;12.21;52.16;99966.00;4931221;29;20036;-84
2022/04/22 01:33:19;;;;;;;7.63;4.10;;;;;;;12.30;52.11;99965.25;4935810;29;20070;-83
2022/04/22 01:35:44;;;;;;;5.60;3.88;;;;;;;12.35;51.85;99970.13;4932688;29;20065;-83
2022/04/22 01:38:09;;;;;;;7.47;4.43;;;;;;;12.01;52.54;99964.16;4917208;29;20026;-83
2022/04/22 01:40:35;;;;;;;5.95;3.70;;;;;;;12.26;52.23;99962.97;4930512;29;20224;-83
2022/04/22 01:43:00;;;;;;;6.80;4.30;;;;;;;12.30;52.21;99954.72;4936388;29;20032;-83
2022/04/22 01:45:26;;;;;;;9.27;3.95;;;;;;;12.31;52.11;99952.91;4936087;29;20028;-83
2022/04/22 01:47:51;;;;;;;6.95;4.60;;;;;;;12.14;52.07;99956.94;4936294;29;20474;-83
2022/04/22 01:50:16;;;;;;;6.95;4.53;;;;;;;12.01;52.47;99948.38;4933974;29;20032;-83
2022/04/22 01:52:42;;;;;;;7.50;4.03;;;;;;;11.87;53.38;99952.09;4921807;29;20098;-83
2022/04/22 01:55:08;;;;;;;8.10;4.72;;;;;;;11.95;53.00;99960.22;4935630;29;20382;-83
2022/04/22 01:57:34;;;;;;;6.97;4.45;;;;;;;11.92;53.04;99952.56;4935620;29;20023;-83
2022/04/22 02:00:01;;;;;;;7.75;4.13;;;;;;;11.92;53.23;99947.31;4935283;29;20042;-83
2022/04/22 02:02:27;;;;;;;6.85;4.07;;;;;;;12.07;52.68;99951.34;4936033;29;20058;-83
2022/04/22 02:04:52;;;;;;;6.10;4.10;;;;;;;11.80;53.38;99941.22;4935951;29;20467;-83
2022/04/22 02:07:17;;;;;;;8.18;4.70;;;;;;;11.92;53.20;99938.59;4933983;29;20035;-83
2022/04/22 02:09:43;;;;;;;6.57;3.92;;;;;;;11.76;53.71;99924.00;4935301;29;20031;-83
2022/04/22 02:12:09;;;;;;;6.38;4.15;;;;;;;11.47;54.60;99926.34;4935390;29;20371;-83
2022/04/22 02:14:34;;;;;;;6.05;4.20;;;;;;;11.55;54.50;99925.72;4936147;29;20611;-82
2022/04/22 02:17:00;;;;;;;10.27;4.85;;;;;;;11.36;54.68;99921.13;4936286;29;20023;-83
2022/04/22 02:19:26;;;;;;;7.50;4.45;;;;;;;11.27;55.13;99910.34;4936226;29;20078;-83
2022/04/22 02:21:52;;;;;;;10.35;4.85;;;;;;;11.25;55.18;99914.88;4935766;29;20027;-83
2022/04/22 02:24:18;;;;;;;7.57;3.88;;;;;;;11.67;54.50;99914.22;4928341;29;20107;-83
2022/04/22 02:29:27;;;;;;;7.40;4.78;;;;;;;11.70;54.19;99903.47;4920074;29;20123;-83
2022/04/22 02:31:53;;;;;;;11.90;4.88;;;;;;;11.45;55.19;99908.09;4935543;29;20103;-82
2022/04/22 02:34:23;;;;;;;8.50;4.10;;;;;;;11.44;55.20;99903.75;4935744;29;20027;-82
2022/04/22 02:36:50;;;;;;;9.13;4.82;;;;;;;11.53;54.73;99894.28;4935820;29;20079;-82
2022/04/22 02:39:15;;;;;;;10.90;4.72;;;;;;;11.45;55.20;99900.19;4933724;29;20142;-83
2022/04/22 02:47:10;;;;;;;9.27;5.03;;;;;;;11.29;55.68;99894.47;4935595;29;20142;-83
2022/04/22 02:49:35;;;;;;;7.30;4.50;;;;;;;11.20;56.44;99890.78;4935612;29;20119;-82
2022/04/22 02:52:01;;;;;;;7.85;5.10;;;;;;;11.51;55.51;99897.06;4935272;29;20111;-82
2022/04/22 02:54:30;;;;;;;8.50;4.70;;;;;;;11.63;55.14;99892.63;4931594;29;20395;-83
2022/04/22 02:56:56;;;;;;;13.52;4.72;;;;;;;11.35;55.95;99895.78;4916204;29;20157;-83
2022/04/22 02:59:22;;;;;;;10.77;5.07;;;;;;;11.28;56.15;99893.63;4917219;29;20123;-83
2022/04/22 03:01:48;;;;;;;9.40;4.90;;;;;;;11.43;55.81;99907.38;4947934;28;20036;-83
2022/04/22 03:04:15;;;;;;;6.55;4.85;;;;;;;11.17;56.24;99900.69;4934846;29;20032;-82
2022/04/22 03:06:41;;;;;;;12.10;4.97;;;;;;;11.34;56.09;99905.47;4928804;29;20060;-82
2022/04/22 03:09:06;;;;;;;7.82;4.90;;;;;;;11.35;55.98;99893.97;4915995;29;20135;-82
2022/04/22 03:11:32;;;;;;;14.38;5.78;;;;;;;11.31;56.28;99897.81;4933494;29;20040;-83
2022/04/22 03:13:57;;;;;;;8.50;4.55;;;;;;;11.17;56.41;99890.19;4934077;29;20034;-82
2022/04/22 03:16:24;;;;;;;9.43;5.10;;;;;;;11.14;56.74;99887.78;4935123;29;20428;-82
2022/04/22 03:18:50;;;;;;;7.63;5.03;;;;;;;11.30;56.03;99885.63;4933814;28;20513;-84
2022/04/22 03:21:16;;;;;;;9.85;5.53;;;;;;;11.26;55.99;99873.69;4934380;29;20036;-82
2022/04/22 03:23:41;;;;;;;12.38;6.20;;;;;;;11.34;55.70;99878.34;4934905;29;20039;-82
2022/04/22 03:26:07;;;;;;;8.98;5.00;;;;;;;11.01;56.60;99878.25;4934888;29;20073;-82
2022/04/22 03:28:33;;;;;;;9.00;5.28;;;;;;;10.94;57.18;99874.44;4934004;29;20035;-82
2022/04/22 03:30:58;;;;;;;11.48;5.80;;;;;;;11.14;56.24;99869.38;4933969;29;20027;-82
2022/04/22 03:33:24;;;;;;;7.60;5.22;;;;;;;11.30;55.81;99869.88;4924518;29;20074;-82
2022/04/22 03:35:50;;;;;;;11.93;5.28;;;;;;;11.10;56.50;99872.28;4915347;29;20073;-83
2022/04/22 03:38:20;;;;;;;8.52;5.63;;;;;;;10.75;57.62;99874.19;4915767;29;20056;-83
2022/04/22 03:40:49;;;;;;;9.35;5.70;;;;;;;10.62;58.33;99853.28;4926278;29;20079;-83
2022/04/22 03:43:16;;;;;;;8.32;5.60;;;;;;;10.91;57.52;99858.91;4934629;29;20044;-83
2022/04/22 03:45:42;;;;;;;8.52;5.70;;;;;;;10.95;57.09;99855.09;4934328;29;20024;-82
2022/04/22 03:48:08;;;;;;;11.40;5.95;;;;;;;10.81;57.68;99865.84;4933981;29;20402;-83
2022/04/22 03:50:36;;;;;;;9.02;6.15;;;;;;;10.85;57.58;99856.75;4934023;29;20027;-83
2022/04/22 03:53:02;;;;;;;9.18;5.88;;;;;;;10.89;57.52;99861.66;4933688;29;20024;-83
2022/04/22 03:55:28;;;;;;;10.70;6.22;;;;;;;10.73;57.60;99855.91;4934531;29;20090;-82
2022/04/22 03:58:12;;;;;;;11.98;6.50;;;;;;;10.81;57.75;99866.66;4934354;29;20235;-82
2022/04/22 04:00:39;;;;;;;10.13;6.28;;;;;;;10.71;58.33;99849.97;4934099;29;20028;-82
2022/04/22 04:03:07;;;;;;;11.02;6.18;;;;;;;10.80;58.36;99848.41;4933680;29;20035;-82
2022/04/22 04:05:33;;;;;;;10.35;6.22;;;;;;;10.93;57.66;99845.66;4934057;29;20729;-82
2022/04/22 04:07:58;;;;;;;10.80;5.82;;;;;;;10.82;57.80;99843.84;4933377;29;20081;-82
2022/04/22 04:16:00;;;;;;;12.05;5.95;;;;;;;10.67;58.38;99849.34;4934158;29;20046;-82
2022/04/22 04:18:30;;;;;;;9.68;6.03;;;;;;;11.00;57.30;99838.94;4934168;29;20398;-83
2022/04/22 04:23:54;;;;;;;9.65;5.85;;;;;;;10.95;57.60;99841.94;4936442;29;20048;-82
2022/04/22 04:26:21;;;;;;;9.48;6.60;;;;;;;10.96;57.75;99832.28;4937702;29;20028;-83
2022/04/22 04:28:48;;;;;;;9.98;6.50;;;;;;;10.96;57.74;99835.75;4937060;29;20095;-83
2022/04/22 04:31:14;;;;;;;9.80;6.75;;;;;;;10.93;58.06;99838.59;4937567;29;20036;-83
2022/04/22 04:33:41;;;;;;;11.55;6.22;;;;;;;10.96;57.93;99829.63;4937698;29;20031;-83
2022/04/22 04:36:09;;;;;;;13.30;6.20;;;;;;;11.00;57.62;99842.44;4937783;29;20075;-82
2022/04/22 04:38:36;;;;;;;11.88;6.53;;;;;;;10.89;58.07;99845.06;4937544;29;20066;-83
2022/04/22 04:41:02;;;;;;;8.60;6.57;;;;;;;11.03;57.60;99844.81;4937056;29;20499;-82
2022/04/22 04:43:28;;;;;;;10.35;6.13;;;;;;;10.84;57.95;99847.19;4937321;29;20051;-83
2022/04/22 04:45:53;;;;;;;10.25;7.18;;;;;;;10.97;58.16;99836.59;4937471;29;20374;-82
2022/04/22 04:48:19;;;;;;;14.10;6.80;;;;;;;10.78;58.01;99838.03;4925752;29;20091;-83
2022/04/22 04:50:51;;;;;;;11.10;7.07;;;;;;;10.81;58.19;99844.81;4927431;29;20106;-83
2022/04/22 04:53:17;;;;;;;;;;;;;;;10.78;58.00;99842.44;4936995;29;20024;-83
2022/04/22 04:55:43;;;;;;;11.68;7.47;;;;;;;10.76;58.50;99839.09;4937425;29;19936;-83
2022/04/22 04:58:09;;;;;;;13.30;7.70;;;;;;;10.98;58.30;99841.72;4936998;29;20039;-83
2022/04/22 05:00:34;;;;;;;13.43;7.88;;;;;;;10.90;58.29;99844.13;4936651;29;20036;-83
2022/04/22 05:03:00;;;;;;;11.38;7.55;;;;;;;10.92;58.40;99844.84;4935928;29;20055;-84
2022/04/22 05:05:26;;;;;;;13.30;7.50;;;;;;;10.91;58.65;99835.25;4936443;29;20031;-83
2022/04/22 05:07:53;;;;;;;13.52;8.07;;;;;;;10.73;59.11;99849.84;4929500;29;20494;-82
2022/04/22 05:10:19;;;;;;;9.80;7.97;;;;;;;10.73;59.27;99837.53;4934807;29;20038;-83
2022/04/22 05:12:49;;;;;;;13.35;8.52;;;;;;;10.78;59.50;99830.16;4937106;29;20023;-83
2022/04/22 05:15:17;;;;;;;14.20;8.13;;;;;;;10.81;59.19;99832.53;4937080;29;20066;-83
2022/04/22 05:17:43;;;;;;;18.92;7.97;;;;;;;10.96;59.13;99838.38;4936828;29;20516;-83
2022/04/22 05:20:14;;;;;;;17.65;8.45;;;;;;;10.95;59.11;99828.00;4936281;29;20430;-83
2022/04/22 05:22:41;;;;;;;19.30;9.85;;;;;;;10.86;59.53;99829.53;4928944;29;20060;-83
2022/04/22 05:25:08;;;;;;;15.25;8.75;;;;;;;11.03;59.36;99828.22;4917746;29;20028;-83
2022/04/22 05:27:34;;;;;;;14.38;9.10;;;;;;;11.07;59.40;99830.47;4922304;29;20020;-82
2022/04/22 05:32:47;;;;;;;15.77;10.45;;;;;;;11.23;59.25;99827.44;4936880;29;20210;-83
2022/04/22 05:35:15;;;;;;;18.88;10.88;;;;;;;11.34;59.04;99828.41;4936632;29;20098;-83
2022/04/22 05:37:52;;;;;;;14.95;10.48;;;;;;;11.28;59.73;99829.72;4935260;29;20027;-83
2022/04/22 05:40:22;;;;;;;17.92;11.25;;;;;;;11.30;59.52;99836.53;4936102;29;20040;-83
2022/04/22 05:42:49;;;;;;;16.83;11.98;;;;;;;11.34;59.60;99831.88;4925953;29;20040;-83
2022/04/22 05:45:17;;;;;;;19.33;11.90;;;;;;;11.19;59.95;99835.72;4921756;29;20035;-82
2022/04/22 05:47:42;;;;;;;17.40;12.00;;;;;;;11.31;60.33;99835.59;4932740;29;20406;-82
2022/04/22 05:50:12;;;;;;;19.10;12.27;;;;;;;11.03;61.19;99844.81;4935203;29;20027;-83
2022/04/22 05:52:39;;;;;;;17.20;12.52;;;;;;;11.36;60.48;99840.47;4936268;29;20869;-83
2022/04/22 05:55:11;;;;;;;19.48;13.43;;;;;;;11.35;61.07;99845.84;4931511;29;20255;-83
2022/04/22 05:57:36;;;;;;;20.92;12.45;;;;;;;11.30;61.13;99848.84;4917394;29;20032;-82
2022/04/22 06:00:06;;;;;;;20.35;13.15;;;;;;;11.56;60.41;99843.28;4931973;29;20364;-83
2022/04/22 06:02:31;;;;;;;22.33;14.15;;;;;;;11.60;60.30;99844.69;4936044;29;20508;-83
2022/04/22 06:04:57;;;;;;;18.23;14.77;;;;;;;11.51;60.56;99839.22;4936022;29;20095;-83
2022/04/22 06:07:22;;;;;;;19.98;14.13;;;;;;;11.62;60.57;99837.53;4935038;29;20688;-84
2022/04/22 06:12:32;;;;;;;23.58;15.38;;;;;;;11.68;60.59;99839.66;4951386;29;20038;-84
2022/04/22 06:15:00;;;;;;;23.63;15.55;;;;;;;11.89;60.10;99837.09;4950118;28;20393;-84
2022/04/22 06:17:29;;;;;;;20.23;14.60;;;;;;;11.98;60.07;99832.84;4948225;28;20402;-84
2022/04/22 06:19:58;;;;;;;24.08;14.65;;;;;;;11.98;60.55;99843.38;4931132;29;20498;-84
2022/04/22 06:22:24;;;;;;;27.25;16.17;;;;;;;11.46;61.77;99830.88;4923944;29;20052;-84
2022/04/22 06:24:50;;;;;;;24.58;16.23;;;;;;;11.66;61.69;99831.06;4911375;29;20032;-84
2022/04/22 06:27:34;;;;;;;23.70;17.00;;;;;;;11.95;61.07;99833.09;4914441;29;20382;-84
2022/04/22 06:30:04;;;;;;;23.40;16.55;;;;;;;11.85;61.48;99827.75;4930322;29;20040;-84
2022/04/22 06:32:30;;;;;;;23.17;16.48;;;;;;;11.99;60.82;99826.66;4930605;29;20043;-84
2022/04/22 06:34:55;;;;;;;21.75;15.93;;;;;;;11.92;61.35;99822.84;4930534;29;20406;-83
2022/04/22 06:37:21;;;;;;;23.92;17.25;;;;;;;11.75;62.07;99819.78;4914062;29;20063;-82
2022/04/22 06:48:14;;;;;;;30.55;17.50;;;;;;;12.36;61.24;99810.38;4917171;29;20044;-83
2022/04/22 06:50:40;;;;;;;22.40;17.40;;;;;;;12.37;61.07;99812.06;4930229;29;20187;-83
2022/04/22 06:53:06;;;;;;;28.23;17.23;;;;;;;12.44;60.88;99815.81;4929580;29;20027;-83
2022/04/22 06:55:32;;;;;;;25.02;17.27;;;;;;;12.64;60.28;99809.69;4930093;29;20032;-82
2022/04/22 06:58:00;;;;;;;23.05;17.23;;;;;;;12.64;60.66;99803.59;4929820;29;20107;-83
2022/04/22 07:00:25;;;;;;;25.02;17.55;;;;;;;12.70;60.60;99803.91;4928873;29;20459;-84
2022/04/22 07:02:51;;;;;;;27.15;17.35;;;;;;;13.09;59.63;99809.28;4920382;29;20028;-83
2022/04/22 07:05:17;;;;;;;25.13;17.17;;;;;;;13.41;58.64;99807.44;4931167;29;20091;-83
2022/04/22 07:07:42;;;;;;;22.60;17.08;;;;;;;13.43;58.96;99806.31;4948726;29;20075;-83
2022/04/22 07:10:08;;;;;;;22.63;15.85;;;;;;;13.48;57.90;99801.47;4934109;29;20455;-83
2022/04/22 07:12:33;;;;;;;25.65;16.27;;;;;;;13.76;57.84;99806.88;4934913;29;20114;-82
2022/04/22 07:15:06;;;;;;;25.38;16.73;;;;;;;13.66;58.37;99799.00;4934456;29;20023;-82
2022/04/22 07:17:33;;;;;;;25.60;16.05;;;;;;;13.95;57.62;99790.22;4934422;29;20030;-83
2022/04/22 07:20:09;;;;;;;21.30;16.48;;;;;;;14.02;57.48;99791.31;4934062;29;20027;-82
2022/04/22 07:22:39;;;;;;;22.98;16.30;;;;;;;13.97;57.73;99787.44;4934142;29;20049;-83
2022/04/22 07:25:09;;;;;;;23.00;15.93;;;;;;;14.35;56.67;99786.50;4925682;29;20031;-82
2022/04/22 07:27:37;;;;;;;22.90;16.27;;;;;;;14.23;57.44;99793.75;4934116;29;20024;-83
2022/04/22 07:30:11;;;;;;;24.65;16.65;;;;;;;14.62;56.70;99795.50;4919264;29;20040;-82
2022/04/22 07:32:38;;;;;;;19.30;15.80;;;;;;;14.60;56.30;99800.91;4933595;29;20054;-83
2022/04/22 07:35:05;;;;;;;21.75;15.38;;;;;;;14.78;55.55;99793.03;4933055;29;20043;-83
2022/04/22 07:37:30;;;;;;;25.67;15.32;;;;;;;14.82;56.27;99801.53;4933370;29;20023;-83
2022/04/22 07:39:56;;;;;;;24.48;15.88;;;;;;;14.59;55.98;99801.91;4933649;29;20082;-82
2022/04/22 07:42:22;;;;;;;22.58;14.93;;;;;;;14.61;56.30;99801.72;4934491;29;20071;-82
2022/04/22 07:47:36;;;;;;;23.17;14.65;;;;;;;14.28;57.20;99811.84;4933619;29;20038;-82
2022/04/22 07:50:05;;;;;;;19.20;15.25;;;;;;;14.36;57.15;99803.19;4933728;29;20027;-82
2022/04/22 07:52:34;;;;;;;24.52;15.52;;;;;;;14.43;57.01;99807.72;4933818;29;20374;-83
2022/04/22 07:55:00;;;;;;;25.20;16.48;;;;;;;14.50;57.08;99817.75;4936310;29;20103;-82
2022/04/22 07:57:27;;;;;;;21.42;15.80;;;;;;;14.01;58.25;99816.03;4938104;29;20142;-82
2022/04/22 07:59:52;;;;;;;23.65;16.20;;;;;;;14.26;58.24;99808.50;4932063;29;20027;-82
2022/04/22 08:02:17;;;;;;;25.40;16.48;;;;;;;14.37;57.80;99816.25;4937966;29;20031;-82
2022/04/22 08:04:43;;;;;;;23.42;14.98;;;;;;;14.59;57.07;99815.13;4938010;29;20039;-82
2022/04/22 08:07:09;;;;;;;30.08;16.92;;;;;;;14.31;58.18;99805.44;4937344;29;20134;-82
2022/04/22 08:09:35;;;;;;;23.92;15.60;;;;;;;14.39;58.09;99803.72;4937468;29;20038;-82
2022/04/22 08:12:00;;;;;;;24.73;16.00;;;;;;;14.07;58.49;99799.63;4937821;29;20032;-81
2022/04/22 08:14:27;;;;;;;24.45;14.65;;;;;;;14.13;58.58;99810.59;4937985;29;20115;-82
2022/04/22 08:16:54;;;;;;;25.05;14.88;;;;;;;14.47;57.74;99803.00;4935540;29;20563;-82
2022/04/22 08:19:20;;;;;;;18.67;14.45;;;;;;;14.29;58.35;99798.47;4934745;29;20097;-82
2022/04/22 08:21:46;;;;;;;24.38;15.23;;;;;;;14.36;58.66;99795.28;4936108;29;20032;-82
2022/04/22 08:24:11;;;;;;;20.80;15.07;;;;;;;14.21;58.68;99800.16;4920914;29;20495;-83
2022/04/22 08:26:37;;;;;;;25.70;13.85;;;;;;;14.46;58.08;99793.44;4914257;29;20377;-82
2022/04/22 08:29:03;;;;;;;20.70;14.63;;;;;;;14.62;57.60;99793.66;4927617;29;20530;-82
2022/04/22 08:31:28;;;;;;;23.98;14.95;;;;;;;14.38;58.00;99801.25;4927977;29;20038;-83
2022/04/22 08:33:56;;;;;;;24.13;14.52;;;;;;;14.66;58.17;99797.69;4932540;29;20111;-82
2022/04/22 08:36:22;;;;;;;19.25;14.35;;;;;;;14.54;58.33;99805.91;4932728;29;20032;-83
2022/04/22 08:38:47;;;;;;;22.92;14.70;;;;;;;14.97;57.13;99802.69;4940022;29;20441;-82
2022/04/22 08:41:15;;;;;;;20.65;13.95;;;;;;;14.74;57.93;99790.84;4931906;29;20054;-83
2022/04/22 08:43:40;;;;;;;18.25;12.93;;;;;;;14.84;57.56;99791.63;4932435;29;20087;-83
2022/04/22 08:49:58;;;;;;;24.20;13.80;;;;;;;14.77;57.98;99785.25;4925739;29;20100;-82
2022/04/22 08:51:40;;;;;;;24.30;13.05;;;;;;;14.88;57.54;99777.97;4931573;29;20091;-83
2022/04/22 08:54:08;;;;;;;21.02;13.52;;;;;;;14.95;57.00;99767.66;4932583;29;20035;-83
2022/04/22 08:56:35;;;;;;;24.77;15.43;;;;;;;14.86;57.90;99785.22;4932180;29;20035;-83
2022/04/22 08:59:02;;;;;;;25.13;13.73;;;;;;;15.13;57.04;99772.13;4932112;29;20032;-83
2022/04/22 09:01:27;;;;;;;23.25;14.05;;;;;;;14.80;57.59;99769.13;4930580;29;20075;-83
2022/04/22 09:03:53;;;;;;;21.80;12.80;;;;;;;15.24;56.99;99774.56;4922035;29;20036;-83
2022/04/22 09:06:20;;;;;;;26.40;13.98;;;;;;;15.17;57.09;99768.22;4930756;29;20127;-83
2022/04/22 09:08:46;;;;;;;21.20;12.95;;;;;;;15.25;56.79;99771.75;4931435;29;20039;-82
2022/04/22 09:11:12;;;;;;;17.67;12.70;;;;;;;15.63;56.23;99774.25;4931663;29;20031;-83
2022/04/22 09:13:37;;;;;;;20.38;12.98;;;;;;;15.75;55.43;99774.88;4931902;29;20031;-83
2022/04/22 09:16:03;;;;;;;21.58;12.95;;;;;;;15.71;55.58;99766.38;4932002;29;20028;-83
2022/04/22 09:18:30;;;;;;;17.33;12.60;;;;;;;15.63;55.88;99767.16;4931909;29;20059;-83
2022/04/22 09:20:58;;;;;;;23.95;12.35;;;;;;;15.50;55.70;99771.16;4931667;29;20139;-83
2022/04/22 09:23:23;;;;;;;16.55;10.85;;;;;;;15.78;55.42;99772.78;4948093;29;20639;-83
2022/04/22 09:25:49;;;;;;;22.92;12.85;;;;;;;15.61;55.86;99778.88;4937977;28;20073;-82
2022/04/22 09:28:14;;;;;;;19.08;11.93;;;;;;;15.82;55.46;99768.81;4931774;29;20390;-83
2022/04/22 09:30:42;;;;;;;20.27;11.57;;;;;;;16.09;55.05;99764.38;4931109;29;20066;-83
2022/04/22 09:33:09;;;;;;;19.88;12.45;;;;;;;16.11;54.58;99770.34;4930234;29;20490;-83
2022/04/22 09:42:38;;;;;;;19.13;11.57;;;;;;;16.09;54.89;99763.53;4924747;29;20107;-83
2022/04/22 09:43:50;;;;;;;17.73;11.43;;;;;;;16.52;54.45;99767.94;4935587;29;20054;-82
2022/04/22 09:46:32;;;;;;;22.73;12.68;;;;;;;16.56;53.78;99763.16;4935005;29;20530;-83
2022/04/22 09:48:59;;;;;;;19.38;11.32;;;;;;;16.55;53.31;99767.63;4934806;29;20159;-83
2022/04/22 09:51:30;;;;;;;26.73;12.82;;;;;;;16.22;54.03;99762.13;4935436;29;20446;-83
2022/04/22 09:54:03;;;;;;;28.90;12.63;;;;;;;15.95;55.09;99763.13;4934726;29;20035;-83
2022/04/22 09:56:29;;;;;;;21.55;12.15;;;;;;;16.17;54.97;99759.16;4933567;29;20281;-83
2022/04/22 09:58:56;;;;;;;19.85;11.75;;;;;;;16.27;54.50;99740.47;4933468;29;20395;-82
2022/04/22 10:01:23;;;;;;;15.82;10.07;;;;;;;16.99;53.07;99745.44;4934403;29;20043;-82
2022/04/22 10:03:49;;;;;;;23.10;11.95;;;;;;;18.76;49.89;99740.31;4934524;29;20483;-83
2022/04/22 10:06:15;;;;;;;19.25;10.23;;;;;;;19.67;48.34;99726.41;4932602;29;20055;-83
2022/04/22 10:08:43;;;;;;;19.92;10.95;;;;;;;18.86;48.17;99720.66;4929196;29;20035;-83
2022/04/22 10:11:10;;;;;;;16.35;10.07;;;;;;;19.71;47.29;99714.41;4933568;29;20091;-83
2022/04/22 10:13:46;;;;;;;13.73;9.18;;;;;;;20.86;45.07;99718.50;4935209;29;20031;-83
2022/04/22 10:16:13;;;;;;;20.45;9.32;;;;;;;21.35;42.87;99710.56;4934878;29;20023;-83
2022/04/22 10:18:39;;;;;;;13.00;8.60;;;;;;;22.41;41.56;99703.53;4935198;29;20028;-83
2022/04/22 10:21:06;;;;;;;17.45;9.00;;;;;;;23.17;39.66;99698.06;4933792;29;20039;-83
2022/04/22 10:23:32;;;;;;;13.45;8.98;;;;;;;23.46;38.90;99694.16;4934974;29;20570;-84
2022/04/22 10:25:58;;;;;;;19.50;9.15;;;;;;;23.41;37.98;99696.63;4935198;29;20103;-83
2022/04/22 10:28:25;;;;;;;13.43;7.97;;;;;;;23.22;38.96;99694.75;4935501;29;20511;-83
2022/04/22 10:30:55;;;;;;;16.40;7.80;;;;;;;23.73;37.78;99713.72;4934811;29;20032;-83
2022/04/22 10:33:25;;;;;;;17.25;8.43;;;;;;;22.65;39.05;99712.91;4935337;29;20066;-83
2022/04/22 10:35:57;;;;;;;18.42;8.00;;;;;;;22.50;39.76;99703.19;4933393;29;20032;-84
2022/04/22 10:38:38;;;;;;;15.18;8.07;;;;;;;22.10;40.33;99716.31;4935058;29;20026;-83
2022/04/22 10:41:13;;;;;;;14.03;8.23;;;;;;;20.63;43.00;99718.63;4934318;29;20058;-83
2022/04/22 10:43:39;;;;;;;18.23;8.40;;;;;;;20.26;43.58;99725.69;4943479;29;20748;-83
2022/04/22 10:49:15;;;;;;;16.08;9.00;;;;;;;18.83;46.66;99712.03;4933552;29;20057;-83
2022/04/22 10:52:02;;;;;;;17.60;9.32;;;;;;;19.33;46.02;99712.56;4927379;29;20055;-83
2022/04/22 10:54:55;;;;;;;17.95;9.27;;;;;;;19.62;45.88;99706.47;4917212;29;20062;-83
2022/04/22 10:57:23;;;;;;;20.92;8.55;;;;;;;19.33;46.42;99712.56;4918950;29;20136;-83
2022/04/22 11:00:06;;;;;;;17.70;9.00;;;;;;;19.02;46.50;99699.28;4929976;29;20038;-83
2022/04/22 11:02:39;;;;;;;16.60;8.45;;;;;;;18.76;47.49;99724.34;4922653;29;20042;-83
2022/04/22 11:05:20;;;;;;;15.45;7.97;;;;;;;18.70;47.11;99726.84;4913105;29;20036;-83
2022/04/22 11:07:51;;;;;;;13.18;9.02;;;;;;;18.58;47.86;99706.00;4926003;29;20054;-83
2022/04/22 11:10:17;;;;;;;20.30;9.57;;;;;;;18.50;48.16;99715.81;4915633;29;20054;-83
2022/04/22 11:12:52;;;;;;;17.55;9.18;;;;;;;18.37;48.32;99717.19;4924413;29;20047;-83
2022/04/22 11:15:42;;;;;;;17.15;8.63;;;;;;;18.21;49.16;99715.44;4927414;29;20027;-83
2022/04/22 11:18:08;;;;;;;14.07;8.32;;;;;;;17.96;48.96;99706.69;4934105;29;20513;-83
2022/04/22 11:20:37;;;;;;;12.90;7.97;;;;;;;18.32;49.03;99716.06;4925139;29;20119;-83
2022/04/22 11:23:05;;;;;;;16.73;9.07;;;;;;;18.40;48.77;99721.34;4926533;29;20043;-82
2022/04/22 11:25:31;;;;;;;11.98;7.93;;;;;;;18.26;48.87;99719.41;4927448;29;20110;-84
2022/04/22 11:27:58;;;;;;;14.52;8.27;;;;;;;18.20;48.54;99715.59;4928951;29;20101;-83
2022/04/22 11:30:26;;;;;;;12.15;7.30;;;;;;;18.10;48.74;99721.09;4930020;29;20079;-82
2022/04/22 11:33:05;;;;;;;13.85;7.75;;;;;;;18.47;48.40;99718.84;4917226;29;20491;-83
2022/04/22 11:35:34;;;;;;;15.02;7.32;;;;;;;18.57;48.00;99711.47;4924513;29;20123;-83
2022/04/22 11:38:04;;;;;;;16.40;8.60;;;;;;;18.85;47.10;99719.00;4929617;29;20122;-84
2022/04/22 11:40:35;;;;;;;23.15;8.65;;;;;;;18.67;47.48;99711.25;4924914;29;20039;-84
2022/04/22 11:43:12;;;;;;;13.85;7.68;;;;;;;18.96;47.09;99719.44;4928886;29;20077;-84
2022/04/22 11:45:40;;;;;;;12.05;7.47;;;;;;;19.33;46.57;99706.38;4927584;29;20082;-85
2022/04/22 11:48:07;;;;;;;15.15;8.25;;;;;;;18.78;47.12;99714.38;4929218;29;20031;-84
2022/04/22 11:50:40;;;;;;;13.02;7.43;;;;;;;18.77;46.97;99711.88;4927224;29;20204;-84
2022/04/22 11:53:19;;;;;;;20.75;8.55;;;;;;;18.43;47.87;99705.88;4924415;29;20490;-84
2022/04/22 11:55:47;;;;;;;13.32;7.50;;;;;;;19.17;46.51;99710.84;4921392;29;20035;-85
2022/04/22 11:58:17;;;;;;;15.65;7.57;;;;;;;19.59;45.96;99703.38;4931728;29;20023;-85
2022/04/22 12:06:14;;;;;;;14.30;7.55;;;;;;;19.59;46.20;99708.69;4913801;29;20485;-86
2022/04/22 12:08:50;;;;;;;15.85;7.50;;;;;;;20.68;44.58;99702.91;4928737;29;20028;-83
2022/04/22 12:11:16;;;;;;;14.95;7.95;;;;;;;20.79;43.17;99697.91;4930917;29;20163;-84
2022/04/22 12:13:41;;;;;;;12.07;7.07;;;;;;;20.65;43.60;99697.91;4931277;28;20127;-84
2022/04/22 12:16:07;;;;;;;14.30;7.75;;;;;;;20.33;44.39;99702.63;4925541;29;20063;-85
2022/04/22 12:18:36;;;;;;;14.55;6.50;;;;;;;20.89;43.50;99705.59;4929182;29;20038;-83
2022/04/22 12:21:05;;;;;;;17.48;7.57;;;;;;;20.63;43.37;99702.63;4928083;29;20031;-83